Time;durP1;ratioP1;P1;durP2;ratioP2;P2;SDS_P1;SDS_P2;PMS_P1;PMS_P2;Temp;Humidity;BMP_temperature;BMP_pressure;BME280_temperature;BME280_humidity;BME280_pressure;Samples;Min_cycle;Max_cycle;Signal;HPM_P1;HPM_P2
2021/12/28 00:01:31;;;;;;;2.42;2.22;;;;;;;;;;5048623;28;20234;-74
2021/12/28 00:03:59;;;;;;;2.78;2.17;;;;;;;;;;5050236;28;20612;-74
2021/12/28 00:06:27;;;;;;;2.55;2.15;;;;;;;;;;5050994;28;20300;-74
2021/12/28 00:08:54;;;;;;;2.88;2.20;;;;;;;;;;5044291;28;20218;-74
2021/12/28 00:11:21;;;;;;;2.10;1.90;;;;;;;;;;5043400;28;20602;-75
2021/12/28 00:13:48;;;;;;;2.88;2.42;;;;;;;;;;5051024;28;20187;-74
2021/12/28 00:17:58;;;;;;;2.10;1.90;;;;;;;;;;5050337;28;20190;-74
2021/12/28 00:19:22;;;;;;;2.30;2.10;;;;;;;;;;5049284;28;20209;-75
2021/12/28 00:21:49;;;;;;;2.20;1.95;;;;;;;;;;5036315;28;20541;-76
2021/12/28 00:24:16;;;;;;;1.77;1.67;;;;;;;;;;5052205;28;20226;-75
2021/12/28 00:26:43;;;;;;;2.47;1.80;;;;;;;;;;5042832;28;20738;-75
2021/12/28 00:29:10;;;;;;;1.58;1.42;;;;;;;;;;5050883;28;20199;-75
2021/12/28 00:31:37;;;;;;;1.42;1.33;;;;;;;;;;5044393;28;20558;-75
2021/12/28 00:34:05;;;;;;;1.42;1.33;;;;;;;;;;5049462;28;20230;-75
2021/12/28 00:36:34;;;;;;;1.30;1.20;;;;;;;;;;5043116;28;20199;-74
2021/12/28 00:39:01;;;;;;;2.13;1.92;;;;;;;;;;5050848;28;20191;-74
2021/12/28 00:41:28;;;;;;;2.25;2.05;;;;;;;;;;5047045;28;20651;-75
2021/12/28 00:43:55;;;;;;;1.80;1.70;;;;;;;;;;5050316;28;20194;-74
2021/12/28 00:46:22;;;;;;;1.70;1.42;;;;;;;;;;5051412;28;20674;-74
2021/12/28 00:48:53;;;;;;;1.95;1.70;;;;;;;;;;5036046;28;20214;-75
2021/12/28 00:51:20;;;;;;;1.67;1.55;;;;;;;;;;5034988;28;20320;-74
2021/12/28 00:53:49;;;;;;;1.60;1.50;;;;;;;;;;5044857;28;20195;-75
2021/12/28 00:56:16;;;;;;;1.88;1.48;;;;;;;;;;5043992;28;20190;-75
2021/12/28 00:58:43;;;;;;;1.48;1.20;;;;;;;;;;5043122;28;20301;-74
2021/12/28 01:01:10;;;;;;;2.00;1.55;;;;;;;;;;5050942;28;20705;-75
2021/12/28 01:03:38;;;;;;;1.70;1.50;;;;;;;;;;5048290;28;20211;-74
2021/12/28 01:06:06;;;;;;;2.38;1.80;;;;;;;;;;5049699;28;20194;-75
2021/12/28 01:08:33;;;;;;;1.50;1.40;;;;;;;;;;5031483;28;20231;-74
2021/12/28 01:11:01;;;;;;;2.30;1.48;;;;;;;;;;5037400;28;20195;-74
2021/12/28 01:13:28;;;;;;;2.25;2.05;;;;;;;;;;5050331;28;20206;-75
2021/12/28 01:15:56;;;;;;;2.17;1.40;;;;;;;;;;5050030;28;20191;-74
2021/12/28 01:18:23;;;;;;;1.42;1.33;;;;;;;;;;5036533;28;20206;-75
2021/12/28 01:20:51;;;;;;;1.63;1.48;;;;;;;;;;5031506;28;20207;-75
2021/12/28 01:23:19;;;;;;;1.65;1.55;;;;;;;;;;5046600;28;20199;-75
2021/12/28 01:25:46;;;;;;;1.20;1.10;;;;;;;;;;5043408;28;20206;-75
2021/12/28 01:28:14;;;;;;;1.77;1.52;;;;;;;;;;5050410;28;20242;-75
2021/12/28 01:30:41;;;;;;;3.38;1.65;;;;;;;;;;5049103;28;20659;-75
2021/12/28 01:33:09;;;;;;;1.50;1.40;;;;;;;;;;5046385;28;20195;-74
2021/12/28 01:35:36;;;;;;;2.72;2.17;;;;;;;;;;5049524;28;20201;-75
2021/12/28 01:38:03;;;;;;;1.85;1.65;;;;;;;;;;5044428;28;20200;-74
2021/12/28 01:40:32;;;;;;;2.13;1.88;;;;;;;;;;5031275;28;20214;-74
2021/12/28 01:43:01;;;;;;;2.30;1.73;;;;;;;;;;5048255;28;20199;-74
2021/12/28 01:45:37;;;;;;;3.15;1.77;;;;;;;;;;5049339;28;20199;-74
2021/12/28 01:48:05;;;;;;;1.70;1.60;;;;;;;;;;5041961;28;20226;-74
2021/12/28 01:50:32;;;;;;;1.77;1.67;;;;;;;;;;5049464;28;20665;-74
2021/12/28 01:52:59;;;;;;;2.05;1.77;;;;;;;;;;5050102;28;20198;-74
2021/12/28 01:55:26;;;;;;;2.20;2.00;;;;;;;;;;5050266;28;20541;-74
2021/12/28 01:57:53;;;;;;;2.13;1.60;;;;;;;;;;5047697;28;20666;-74
2021/12/28 02:00:20;;;;;;;1.90;1.40;;;;;;;;;;5044597;28;20707;-74
2021/12/28 02:02:49;;;;;;;2.90;1.70;;;;;;;;;;5036510;28;20202;-74
2021/12/28 02:05:16;;;;;;;2.65;1.48;;;;;;;;;;5050055;28;20199;-74
2021/12/28 02:07:43;;;;;;;2.00;1.52;;;;;;;;;;5046209;28;20219;-74
2021/12/28 02:10:10;;;;;;;1.98;1.42;;;;;;;;;;5045435;28;20206;-74
2021/12/28 02:12:37;;;;;;;1.95;1.20;;;;;;;;;;5041294;28;20207;-75
2021/12/28 02:15:08;;;;;;;2.00;1.83;;;;;;;;;;5049710;28;20198;-75
2021/12/28 02:17:35;;;;;;;1.50;1.40;;;;;;;;;;5046167;28;20288;-74
2021/12/28 02:20:06;;;;;;;1.50;1.40;;;;;;;;;;5049509;28;20203;-74
2021/12/28 02:22:33;;;;;;;1.33;1.23;;;;;;;;;;5048434;28;20191;-74
2021/12/28 02:25:00;;;;;;;2.70;1.73;;;;;;;;;;5042913;28;20195;-74
2021/12/28 02:27:28;;;;;;;2.08;1.50;;;;;;;;;;5041094;28;20222;-74
2021/12/28 02:29:55;;;;;;;1.88;1.70;;;;;;;;;;5049261;28;20256;-75
2021/12/28 02:32:25;;;;;;;1.60;1.23;;;;;;;;;;5042209;28;20558;-75
2021/12/28 02:34:52;;;;;;;2.10;1.80;;;;;;;;;;5050043;28;20221;-74
2021/12/28 02:37:20;;;;;;;1.50;1.40;;;;;;;;;;5049998;28;20195;-74
2021/12/28 02:39:47;;;;;;;1.60;1.48;;;;;;;;;;5048337;28;20597;-74
2021/12/28 02:42:16;;;;;;;1.75;1.65;;;;;;;;;;5038859;28;20203;-73
2021/12/28 02:44:43;;;;;;;1.20;1.10;;;;;;;;;;5042081;28;20651;-73
2021/12/28 02:47:10;;;;;;;1.70;1.60;;;;;;;;;;5042025;28;20219;-73
2021/12/28 02:49:37;;;;;;;1.60;1.50;;;;;;;;;;5031571;28;20668;-73
2021/12/28 02:52:09;;;;;;;1.88;1.63;;;;;;;;;;5049854;28;20207;-73
2021/12/28 02:54:37;;;;;;;2.70;1.45;;;;;;;;;;5048693;28;20663;-74
2021/12/28 02:57:05;;;;;;;2.72;1.48;;;;;;;;;;5043551;28;20617;-73
2021/12/28 02:59:32;;;;;;;1.50;1.20;;;;;;;;;;5048758;28;20226;-74
2021/12/28 03:01:59;;;;;;;1.80;1.65;;;;;;;;;;5042967;28;20203;-74
2021/12/28 03:04:27;;;;;;;1.83;1.35;;;;;;;;;;5033337;28;20250;-74
2021/12/28 03:06:54;;;;;;;1.90;1.27;;;;;;;;;;5051459;28;20214;-73
2021/12/28 03:09:23;;;;;;;1.75;1.65;;;;;;;;;;5052024;28;20593;-74
2021/12/28 03:11:51;;;;;;;3.22;2.10;;;;;;;;;;5048105;28;20200;-72
2021/12/28 03:14:18;;;;;;;1.88;1.40;;;;;;;;;;5052923;28;20280;-72
2021/12/28 03:19:48;;;;;;;1.52;1.42;;;;;;;;;;5039017;28;20204;-73
2021/12/28 03:22:15;;;;;;;2.38;1.50;;;;;;;;;;5050838;28;20202;-73
2021/12/28 03:24:42;;;;;;;3.05;1.55;;;;;;;;;;5052723;28;20195;-73
2021/12/28 03:27:11;;;;;;;1.27;1.17;;;;;;;;;;5050828;28;20679;-73
2021/12/28 03:29:38;;;;;;;1.63;1.52;;;;;;;;;;5042647;28;20204;-72
2021/12/28 03:32:05;;;;;;;5.75;1.77;;;;;;;;;;5049280;28;20555;-73
2021/12/28 03:34:32;;;;;;;1.35;1.25;;;;;;;;;;5037494;28;20207;-72
2021/12/28 03:37:00;;;;;;;2.10;1.50;;;;;;;;;;5050018;28;20202;-74
2021/12/28 03:39:27;;;;;;;1.85;1.70;;;;;;;;;;5051301;28;20206;-75
2021/12/28 03:41:54;;;;;;;1.70;1.50;;;;;;;;;;5044354;28;20199;-75
2021/12/28 03:44:22;;;;;;;2.22;1.60;;;;;;;;;;5047666;28;20203;-75
2021/12/28 03:46:49;;;;;;;2.03;1.80;;;;;;;;;;5046671;28;20202;-74
2021/12/28 03:49:16;;;;;;;5.13;1.70;;;;;;;;;;5047371;28;20640;-74
2021/12/28 03:51:43;;;;;;;3.78;2.28;;;;;;;;;;5044474;28;20200;-74
2021/12/28 03:54:10;;;;;;;3.05;2.35;;;;;;;;;;5033110;28;20196;-75
2021/12/28 03:56:37;;;;;;;2.58;1.85;;;;;;;;;;5042139;28;20194;-75
2021/12/28 03:59:04;;;;;;;3.05;1.33;;;;;;;;;;5050036;28;20191;-75
2021/12/28 04:01:33;;;;;;;2.50;1.52;;;;;;;;;;5051355;28;20233;-75
2021/12/28 04:04:00;;;;;;;1.90;1.63;;;;;;;;;;5042227;28;20204;-74
2021/12/28 04:06:28;;;;;;;3.10;1.80;;;;;;;;;;5047993;28;20558;-74
2021/12/28 04:08:57;;;;;;;5.20;1.60;;;;;;;;;;5046211;28;20398;-75
2021/12/28 04:11:27;;;;;;;4.15;1.70;;;;;;;;;;5039486;28;20811;-74
2021/12/28 04:13:59;;;;;;;2.30;1.33;;;;;;;;;;5047806;28;20230;-74
2021/12/28 04:16:26;;;;;;;1.60;1.40;;;;;;;;;;5048842;28;20198;-74
2021/12/28 04:18:54;;;;;;;1.42;1.13;;;;;;;;;;5045703;28;20528;-74
2021/12/28 04:21:22;;;;;;;1.30;1.20;;;;;;;;;;5047917;28;20191;-74
2021/12/28 04:23:49;;;;;;;1.80;1.42;;;;;;;;;;5043650;28;20199;-73
2021/12/28 04:26:16;;;;;;;1.77;1.48;;;;;;;;;;5050522;28;20207;-73
2021/12/28 04:28:43;;;;;;;1.83;1.10;;;;;;;;;;5045875;28;20213;-74
2021/12/28 04:31:12;;;;;;;2.30;1.52;;;;;;;;;;5049833;28;20731;-74
2021/12/28 04:33:39;;;;;;;2.60;1.30;;;;;;;;;;5043479;28;20238;-74
2021/12/28 04:36:09;;;;;;;1.90;1.30;;;;;;;;;;5042981;28;20199;-74
2021/12/28 04:38:36;;;;;;;5.22;1.75;;;;;;;;;;5049922;28;20630;-74
2021/12/28 04:41:03;;;;;;;2.35;1.25;;;;;;;;;;5046110;28;20199;-74
2021/12/28 04:43:30;;;;;;;2.15;1.50;;;;;;;;;;5046737;28;20203;-74
2021/12/28 04:45:57;;;;;;;1.85;1.60;;;;;;;;;;5050854;28;20205;-74
2021/12/28 04:48:24;;;;;;;2.15;1.80;;;;;;;;;;5045576;28;20230;-74
2021/12/28 04:50:51;;;;;;;3.05;2.15;;;;;;;;;;5034984;28;20602;-74
2021/12/28 04:53:20;;;;;;;3.28;1.52;;;;;;;;;;5031567;28;20196;-74
2021/12/28 04:55:48;;;;;;;4.75;2.05;;;;;;;;;;5046178;28;20681;-75
2021/12/28 04:58:15;;;;;;;4.47;1.40;;;;;;;;;;5049262;28;20205;-75
2021/12/28 05:00:43;;;;;;;2.70;1.90;;;;;;;;;;5042140;28;20211;-74
2021/12/28 05:03:11;;;;;;;6.10;1.55;;;;;;;;;;5046824;28;20291;-74
2021/12/28 05:05:40;;;;;;;1.63;1.20;;;;;;;;;;5037265;28;20191;-74
2021/12/28 05:08:08;;;;;;;2.13;1.50;;;;;;;;;;5049026;28;20241;-74
2021/12/28 05:10:36;;;;;;;1.83;1.45;;;;;;;;;;5044223;28;20199;-74
2021/12/28 05:13:03;;;;;;;1.75;1.17;;;;;;;;;;5045932;28;20207;-74
2021/12/28 05:15:31;;;;;;;1.98;1.65;;;;;;;;;;5048864;28;20632;-75
2021/12/28 05:17:58;;;;;;;2.35;1.70;;;;;;;;;;5041312;28;20245;-74
2021/12/28 05:20:25;;;;;;;2.35;1.52;;;;;;;;;;5048398;28;20191;-74
2021/12/28 05:22:52;;;;;;;1.92;1.25;;;;;;;;;;5045940;28;20203;-74
2021/12/28 05:25:19;;;;;;;1.70;1.38;;;;;;;;;;5047184;28;20206;-74
2021/12/28 05:27:47;;;;;;;1.85;1.38;;;;;;;;;;5042382;28;20211;-75
2021/12/28 05:30:15;;;;;;;1.70;1.40;;;;;;;;;;5035714;28;20226;-74
2021/12/28 05:32:42;;;;;;;2.25;2.05;;;;;;;;;;5040427;28;20934;-74
2021/12/28 05:35:09;;;;;;;2.55;1.30;;;;;;;;;;5045785;28;20662;-74
2021/12/28 05:37:37;;;;;;;3.30;1.20;;;;;;;;;;5049185;28;20280;-75
2021/12/28 05:40:04;;;;;;;7.85;1.40;;;;;;;;;;5049150;28;20249;-75
2021/12/28 05:42:32;;;;;;;2.00;1.48;;;;;;;;;;5043953;28;20230;-74
2021/12/28 05:45:00;;;;;;;2.50;1.70;;;;;;;;;;5049276;28;20206;-75
2021/12/28 05:47:27;;;;;;;4.47;2.13;;;;;;;;;;5049837;28;20206;-75
2021/12/28 05:49:54;;;;;;;2.40;1.35;;;;;;;;;;5031751;28;20227;-75
2021/12/28 05:52:21;;;;;;;2.70;1.25;;;;;;;;;;5039162;28;20206;-74
2021/12/28 05:54:48;;;;;;;2.20;1.40;;;;;;;;;;5049209;28;20214;-74
2021/12/28 05:57:15;;;;;;;1.85;1.50;;;;;;;;;;5046398;28;20317;-74
2021/12/28 05:59:42;;;;;;;2.85;1.58;;;;;;;;;;5049159;28;20225;-75
2021/12/28 06:02:11;;;;;;;2.65;1.40;;;;;;;;;;5050283;28;20241;-75
2021/12/28 06:04:38;;;;;;;3.38;1.30;;;;;;;;;;5044649;28;20202;-75
2021/12/28 06:07:05;;;;;;;5.85;1.42;;;;;;;;;;5049473;28;20658;-74
2021/12/28 06:09:32;;;;;;;3.00;1.40;;;;;;;;;;5041651;28;20216;-74
2021/12/28 06:11:59;;;;;;;1.98;1.42;;;;;;;;;;5045351;28;20206;-75
2021/12/28 06:14:26;;;;;;;2.30;1.73;;;;;;;;;;5049062;28;20210;-74
2021/12/28 06:16:54;;;;;;;4.88;1.58;;;;;;;;;;5048495;28;20562;-74
2021/12/28 06:19:23;;;;;;;2.83;1.80;;;;;;;;;;5035937;28;20199;-74
2021/12/28 06:21:50;;;;;;;1.95;1.50;;;;;;;;;;5046348;28;20202;-74
2021/12/28 06:24:17;;;;;;;3.60;1.60;;;;;;;;;;5035704;28;20209;-74
2021/12/28 06:26:44;;;;;;;2.22;1.67;;;;;;;;;;5047385;28;20597;-74
2021/12/28 06:29:12;;;;;;;4.68;1.45;;;;;;;;;;5044318;28;20226;-75
2021/12/28 06:31:39;;;;;;;2.13;1.55;;;;;;;;;;5046962;28;20294;-75
2021/12/28 06:34:07;;;;;;;5.30;1.85;;;;;;;;;;5039156;28;20203;-75
2021/12/28 06:36:35;;;;;;;1.90;1.70;;;;;;;;;;5043094;28;20305;-75
2021/12/28 06:39:02;;;;;;;3.38;1.83;;;;;;;;;;5052603;28;20285;-75
2021/12/28 06:41:29;;;;;;;3.80;1.67;;;;;;;;;;5048354;28;20198;-77
2021/12/28 06:43:56;;;;;;;2.65;1.50;;;;;;;;;;5051526;28;20206;-76
2021/12/28 06:46:23;;;;;;;1.63;1.52;;;;;;;;;;5050657;28;20195;-77
2021/12/28 06:48:50;;;;;;;3.67;1.88;;;;;;;;;;5034019;28;20268;-77
2021/12/28 06:51:17;;;;;;;2.45;1.63;;;;;;;;;;5046124;28;20199;-76
2021/12/28 06:53:47;;;;;;;2.80;1.77;;;;;;;;;;5053033;28;20233;-77
2021/12/28 06:56:14;;;;;;;3.53;1.45;;;;;;;;;;5045930;28;20670;-76
2021/12/28 06:58:41;;;;;;;3.05;1.50;;;;;;;;;;5051215;28;20194;-80
2021/12/28 07:01:09;;;;;;;1.95;1.48;;;;;;;;;;5052716;28;20219;-78
2021/12/28 07:03:36;;;;;;;1.75;1.35;;;;;;;;;;5040133;28;20205;-78
2021/12/28 07:06:04;;;;;;;2.95;1.55;;;;;;;;;;5053569;28;20206;-79
2021/12/28 07:08:31;;;;;;;4.05;1.70;;;;;;;;;;5053661;28;20643;-78
2021/12/28 07:10:59;;;;;;;3.83;1.50;;;;;;;;;;5052951;28;20662;-80
2021/12/28 07:13:26;;;;;;;3.72;2.00;;;;;;;;;;5048105;28;20217;-79
2021/12/28 07:15:54;;;;;;;1.83;1.30;;;;;;;;;;5047608;28;20223;-79
2021/12/28 07:18:21;;;;;;;1.73;1.20;;;;;;;;;;5047906;28;20206;-78
2021/12/28 07:20:49;;;;;;;4.22;2.20;;;;;;;;;;5053020;28;20659;-78
2021/12/28 07:23:16;;;;;;;7.30;3.10;;;;;;;;;;5051597;28;20234;-77
2021/12/28 07:25:43;;;;;;;4.90;2.28;;;;;;;;;;5051456;28;20202;-78
2021/12/28 07:28:12;;;;;;;1.60;1.40;;;;;;;;;;5050519;28;20203;-79
2021/12/28 07:30:39;;;;;;;3.85;1.95;;;;;;;;;;5045261;28;20555;-79
2021/12/28 07:33:06;;;;;;;3.30;2.05;;;;;;;;;;5048119;28;20587;-78
2021/12/28 07:35:33;;;;;;;4.57;1.75;;;;;;;;;;5049605;28;20194;-78
2021/12/28 07:38:00;;;;;;;2.28;1.60;;;;;;;;;;5037711;28;20261;-78
2021/12/28 07:40:27;;;;;;;1.77;1.50;;;;;;;;;;5046261;28;20195;-78
2021/12/28 07:42:54;;;;;;;3.58;2.10;;;;;;;;;;5048966;28;20206;-77
2021/12/28 07:45:23;;;;;;;2.28;1.83;;;;;;;;;;5052416;28;20617;-78
2021/12/28 07:47:50;;;;;;;6.03;1.90;;;;;;;;;;5051516;28;20238;-76
2021/12/28 07:50:18;;;;;;;3.08;1.85;;;;;;;;;;5031943;28;20220;-77
2021/12/28 07:52:46;;;;;;;3.20;2.03;;;;;;;;;;5046984;28;20207;-76
2021/12/28 07:55:14;;;;;;;6.57;2.65;;;;;;;;;;5048822;28;20222;-80
2021/12/28 07:57:41;;;;;;;3.92;2.00;;;;;;;;;;5044700;28;20206;-80
2021/12/28 08:00:10;;;;;;;2.08;1.85;;;;;;;;;;5052215;28;20218;-79
2021/12/28 08:02:39;;;;;;;3.22;1.58;;;;;;;;;;5051137;28;20198;-80
2021/12/28 08:05:06;;;;;;;5.03;1.80;;;;;;;;;;5049870;28;20207;-80
2021/12/28 08:07:33;;;;;;;2.15;1.85;;;;;;;;;;5051027;28;20191;-80
2021/12/28 08:10:03;;;;;;;5.80;2.40;;;;;;;;;;5054683;28;20218;-78
2021/12/28 08:12:30;;;;;;;2.13;1.88;;;;;;;;;;5045513;28;20200;-79
2021/12/28 08:14:57;;;;;;;6.15;3.60;;;;;;;;;;5044628;28;20207;-79
2021/12/28 08:17:26;;;;;;;4.22;2.30;;;;;;;;;;5051847;28;20199;-79
2021/12/28 08:19:54;;;;;;;5.05;2.03;;;;;;;;;;5051549;28;20195;-80
2021/12/28 08:22:21;;;;;;;3.20;2.25;;;;;;;;;;5051240;28;20570;-79
2021/12/28 08:24:48;;;;;;;3.03;2.00;;;;;;;;;;5056885;28;20198;-80
2021/12/28 08:27:16;;;;;;;7.22;2.40;;;;;;;;;;5040151;28;20199;-80
2021/12/28 08:29:43;;;;;;;4.40;2.30;;;;;;;;;;5043429;28;20215;-79
2021/12/28 08:32:11;;;;;;;4.25;2.15;;;;;;;;;;5050105;28;20214;-79
2021/12/28 08:34:38;;;;;;;2.35;1.85;;;;;;;;;;5049752;28;20289;-78
2021/12/28 08:37:06;;;;;;;6.97;2.63;;;;;;;;;;5052054;28;20199;-79
2021/12/28 08:39:33;;;;;;;5.55;2.63;;;;;;;;;;5047575;28;20672;-78
2021/12/28 08:42:01;;;;;;;4.78;2.85;;;;;;;;;;5042951;28;20586;-79
2021/12/28 08:44:28;;;;;;;5.70;3.17;;;;;;;;;;5046253;28;20662;-78
2021/12/28 08:46:56;;;;;;;4.82;3.20;;;;;;;;;;5047015;28;20217;-78
2021/12/28 08:49:24;;;;;;;4.05;2.63;;;;;;;;;;5048890;28;20242;-77
2021/12/28 08:51:51;;;;;;;3.53;2.35;;;;;;;;;;5049878;28;20203;-77
2021/12/28 08:54:20;;;;;;;2.88;2.45;;;;;;;;;;5050229;28;20210;-76
2021/12/28 08:56:47;;;;;;;2.97;2.30;;;;;;;;;;5046084;28;20614;-77
2021/12/28 08:59:14;;;;;;;2.90;2.20;;;;;;;;;;5042113;28;20221;-76
2021/12/28 09:01:42;;;;;;;2.20;1.55;;;;;;;;;;5048331;28;20186;-76
2021/12/28 09:04:10;;;;;;;1.88;1.55;;;;;;;;;;5053337;28;20202;-77
2021/12/28 09:06:37;;;;;;;5.35;2.15;;;;;;;;;;5055279;28;20558;-79
2021/12/28 09:09:04;;;;;;;3.38;2.33;;;;;;;;;;5050449;28;20226;-76
2021/12/28 09:11:33;;;;;;;4.07;2.35;;;;;;;;;;5048884;28;20575;-77
2021/12/28 09:14:00;;;;;;;2.15;1.80;;;;;;;;;;5050008;28;20233;-76
2021/12/28 09:16:27;;;;;;;4.13;1.88;;;;;;;;;;5048688;28;20246;-76
2021/12/28 09:18:54;;;;;;;3.97;1.98;;;;;;;;;;5045172;28;20516;-77
2021/12/28 09:21:21;;;;;;;2.55;2.33;;;;;;;;;;5050532;28;20207;-76
2021/12/28 09:23:48;;;;;;;5.63;2.40;;;;;;;;;;5048038;28;20195;-77
2021/12/28 09:26:15;;;;;;;3.55;2.05;;;;;;;;;;5048871;28;20408;-76
2021/12/28 09:28:44;;;;;;;3.75;2.22;;;;;;;;;;5048161;28;20203;-76
2021/12/28 09:31:11;;;;;;;2.38;1.70;;;;;;;;;;5049295;28;20705;-76
2021/12/28 09:33:38;;;;;;;2.35;2.15;;;;;;;;;;5045715;28;20199;-75
2021/12/28 09:36:09;;;;;;;4.40;3.05;;;;;;;;;;5049022;28;20202;-77
2021/12/28 09:38:36;;;;;;;2.38;1.70;;;;;;;;;;5051286;28;20677;-78
2021/12/28 09:41:04;;;;;;;2.58;1.85;;;;;;;;;;5049805;28;20191;-80
2021/12/28 09:43:31;;;;;;;2.58;1.50;;;;;;;;;;5049010;28;20206;-78
2021/12/28 09:45:59;;;;;;;4.28;2.03;;;;;;;;;;5049690;28;20285;-80
2021/12/28 09:48:26;;;;;;;4.13;1.98;;;;;;;;;;5044802;28;20206;-78
2021/12/28 09:50:54;;;;;;;1.95;1.67;;;;;;;;;;5036177;28;20211;-76
2021/12/28 09:53:21;;;;;;;1.33;1.23;;;;;;;;;;5050543;28;20199;-77
2021/12/28 09:55:48;;;;;;;4.40;1.40;;;;;;;;;;5049152;28;20221;-79
2021/12/28 09:58:15;;;;;;;2.00;1.40;;;;;;;;;;5047002;28;20203;-78
2021/12/28 10:00:42;;;;;;;1.95;1.38;;;;;;;;;;5049755;28;20210;-79
2021/12/28 10:03:11;;;;;;;2.88;1.58;;;;;;;;;;5046933;28;20670;-78
2021/12/28 10:05:38;;;;;;;5.72;1.75;;;;;;;;;;5037544;28;20205;-79
2021/12/28 10:08:06;;;;;;;2.10;1.70;;;;;;;;;;5050322;28;20191;-78
2021/12/28 10:10:34;;;;;;;2.55;1.50;;;;;;;;;;5049188;28;20219;-78
2021/12/28 10:13:03;;;;;;;1.38;1.15;;;;;;;;;;5050079;28;20198;-78
2021/12/28 10:15:31;;;;;;;4.53;1.50;;;;;;;;;;5053087;28;20195;-79
2021/12/28 10:18:00;;;;;;;2.00;1.35;;;;;;;;;;5052083;28;20220;-75
2021/12/28 10:20:29;;;;;;;2.00;1.58;;;;;;;;;;5043563;28;20981;-78
2021/12/28 10:22:58;;;;;;;1.67;1.27;;;;;;;;;;5052316;28;20199;-79
2021/12/28 10:25:27;;;;;;;2.17;1.25;;;;;;;;;;5051841;28;20206;-78
2021/12/28 10:27:57;;;;;;;1.30;1.10;;;;;;;;;;5052435;28;20272;-78
2021/12/28 10:30:26;;;;;;;1.50;1.30;;;;;;;;;;5056326;28;20222;-78
2021/12/28 10:32:54;;;;;;;2.90;1.30;;;;;;;;;;5047179;28;20297;-79
2021/12/28 10:35:22;;;;;;;1.60;1.25;;;;;;;;;;5049315;28;20203;-78
2021/12/28 10:37:52;;;;;;;1.98;1.50;;;;;;;;;;5053690;28;20658;-77
2021/12/28 10:40:24;;;;;;;1.20;1.10;;;;;;;;;;5053803;28;20199;-78
2021/12/28 10:42:54;;;;;;;1.60;1.40;;;;;;;;;;5049967;28;20202;-78
2021/12/28 10:45:23;;;;;;;1.70;1.35;;;;;;;;;;5050660;28;20222;-79
2021/12/28 10:47:51;;;;;;;1.92;1.48;;;;;;;;;;5036362;28;20219;-78
2021/12/28 10:50:29;;;;;;;2.10;1.48;;;;;;;;;;5045003;28;20223;-78
2021/12/28 10:53:13;;;;;;;2.05;0.95;;;;;;;;;;5052420;28;20205;-78
2021/12/28 10:55:42;;;;;;;1.65;1.40;;;;;;;;;;5048923;28;20201;-78
2021/12/28 10:58:11;;;;;;;1.17;0.98;;;;;;;;;;5050697;28;20765;-79
2021/12/28 11:00:41;;;;;;;1.50;1.33;;;;;;;;;;5053034;28;20215;-78
2021/12/28 11:03:23;;;;;;;1.50;1.08;;;;;;;;;;5047697;28;20217;-78
2021/12/28 11:05:51;;;;;;;2.20;1.20;;;;;;;;;;5049479;28;20194;-79
2021/12/28 11:08:20;;;;;;;1.90;1.15;;;;;;;;;;5054020;28;20207;-79
2021/12/28 11:10:48;;;;;;;2.95;1.10;;;;;;;;;;5052167;28;20207;-79
2021/12/28 11:13:16;;;;;;;1.67;1.40;;;;;;;;;;5050420;28;20210;-79
2021/12/28 11:15:45;;;;;;;2.03;1.20;;;;;;;;;;5051419;28;20233;-79
2021/12/28 11:18:19;;;;;;;2.33;1.20;;;;;;;;;;5049266;28;20191;-79
2021/12/28 11:20:46;;;;;;;3.05;1.50;;;;;;;;;;5045497;28;20190;-79
2021/12/28 11:23:14;;;;;;;2.03;1.83;;;;;;;;;;5041943;28;20694;-78
2021/12/28 11:25:42;;;;;;;1.55;1.42;;;;;;;;;;5052218;28;20195;-78
2021/12/28 11:28:14;;;;;;;1.60;1.35;;;;;;;;;;5050974;28;20195;-79
2021/12/28 11:30:41;;;;;;;1.35;1.25;;;;;;;;;;5046800;28;20221;-78
2021/12/28 11:33:10;;;;;;;1.60;1.33;;;;;;;;;;5049172;28;20687;-79
2021/12/28 11:35:38;;;;;;;1.80;1.65;;;;;;;;;;5053007;28;20643;-79
2021/12/28 11:38:07;;;;;;;1.48;1.17;;;;;;;;;;5039615;28;20207;-79
2021/12/28 11:40:34;;;;;;;1.75;1.20;;;;;;;;;;5046141;28;20195;-79
2021/12/28 11:43:02;;;;;;;1.90;1.52;;;;;;;;;;5048070;28;20202;-79
2021/12/28 11:45:30;;;;;;;1.30;1.20;;;;;;;;;;5052707;28;20195;-79
2021/12/28 11:47:57;;;;;;;1.75;1.30;;;;;;;;;;5036550;28;20203;-78
2021/12/28 11:50:24;;;;;;;1.98;1.77;;;;;;;;;;5049487;28;20222;-79
2021/12/28 11:52:52;;;;;;;3.20;1.65;;;;;;;;;;5052340;28;20716;-79
2021/12/28 11:55:20;;;;;;;5.60;1.30;;;;;;;;;;5053287;28;20658;-78
2021/12/28 11:57:50;;;;;;;1.50;1.20;;;;;;;;;;5045046;28;20305;-79
2021/12/28 12:00:20;;;;;;;1.90;1.45;;;;;;;;;;5052210;28;20716;-79
2021/12/28 12:02:49;;;;;;;1.70;1.55;;;;;;;;;;5047728;28;20210;-79
2021/12/28 12:05:17;;;;;;;1.67;1.58;;;;;;;;;;5049039;28;20198;-78
2021/12/28 12:07:44;;;;;;;1.40;1.30;;;;;;;;;;5047414;28;20206;-79
2021/12/28 12:10:17;;;;;;;1.10;1.00;;;;;;;;;;5040889;28;20582;-78
2021/12/28 12:12:50;;;;;;;1.45;1.30;;;;;;;;;;5047814;28;20677;-79
2021/12/28 12:15:20;;;;;;;2.25;1.40;;;;;;;;;;5051569;28;20203;-79
2021/12/28 12:17:47;;;;;;;1.42;1.10;;;;;;;;;;5039972;28;20207;-78
2021/12/28 12:20:30;;;;;;;2.85;1.20;;;;;;;;;;5037693;28;20196;-78
2021/12/28 12:22:57;;;;;;;1.20;1.05;;;;;;;;;;5043360;28;20294;-79
2021/12/28 12:25:31;;;;;;;2.47;1.20;;;;;;;;;;5036677;28;20663;-79
2021/12/28 12:27:59;;;;;;;2.25;1.45;;;;;;;;;;5046841;28;20205;-78
2021/12/28 12:30:47;;;;;;;1.23;1.13;;;;;;;;;;5047654;28;20268;-79
2021/12/28 12:33:15;;;;;;;1.40;1.17;;;;;;;;;;5048636;28;20203;-79
2021/12/28 12:35:48;;;;;;;1.38;1.13;;;;;;;;;;5048628;28;20639;-78
2021/12/28 12:38:30;;;;;;;2.17;1.30;;;;;;;;;;5045196;28;20211;-78
2021/12/28 12:41:00;;;;;;;1.50;1.35;;;;;;;;;;5046426;28;20287;-78
2021/12/28 12:43:28;;;;;;;1.30;1.20;;;;;;;;;;5038466;28;20687;-79
2021/12/28 12:46:07;;;;;;;1.27;1.08;;;;;;;;;;5037945;28;20199;-79
2021/12/28 12:48:54;;;;;;;1.45;0.98;;;;;;;;;;5044359;28;20214;-78
2021/12/28 12:51:32;;;;;;;1.23;1.00;;;;;;;;;;5045131;28;20219;-79
2021/12/28 12:54:12;;;;;;;1.27;1.08;;;;;;;;;;5048517;28;20207;-79
2021/12/28 12:56:40;;;;;;;3.28;1.38;;;;;;;;;;5046669;28;20199;-79
2021/12/28 12:59:21;;;;;;;1.15;0.95;;;;;;;;;;5044779;28;20210;-79
2021/12/28 13:02:01;;;;;;;1.10;0.90;;;;;;;;;;5045470;28;20202;-79
2021/12/28 13:04:41;;;;;;;3.00;1.17;;;;;;;;;;5042816;28;20202;-79
2021/12/28 13:07:09;;;;;;;1.35;1.25;;;;;;;;;;5047379;28;20206;-79
2021/12/28 13:09:37;;;;;;;2.38;1.38;;;;;;;;;;5048419;28;20570;-79
2021/12/28 13:12:06;;;;;;;1.63;1.05;;;;;;;;;;5047226;28;20233;-79
2021/12/28 13:14:34;;;;;;;2.83;1.63;;;;;;;;;;5047977;28;20567;-79
2021/12/28 13:17:03;;;;;;;1.48;1.00;;;;;;;;;;5046886;28;20293;-78
2021/12/28 13:19:31;;;;;;;2.30;1.20;;;;;;;;;;5043343;28;20199;-79
2021/12/28 13:21:59;;;;;;;1.63;1.40;;;;;;;;;;5047519;28;20203;-78
2021/12/28 13:24:27;;;;;;;1.73;1.50;;;;;;;;;;5038829;28;20233;-79
2021/12/28 13:26:56;;;;;;;1.30;1.20;;;;;;;;;;5028463;28;20207;-78
2021/12/28 13:29:24;;;;;;;1.88;1.35;;;;;;;;;;5045451;28;20207;-78
2021/12/28 13:31:51;;;;;;;1.58;1.20;;;;;;;;;;5047172;28;20284;-79
2021/12/28 13:34:20;;;;;;;2.95;1.33;;;;;;;;;;5041935;28;20199;-78
2021/12/28 13:36:50;;;;;;;1.63;1.08;;;;;;;;;;5046358;28;20610;-78
2021/12/28 13:39:17;;;;;;;1.30;1.20;;;;;;;;;;5047617;28;20268;-78
2021/12/28 13:41:49;;;;;;;1.75;1.30;;;;;;;;;;5047511;28;20195;-79
2021/12/28 13:47:21;;;;;;;1.90;1.15;;;;;;;;;;5034302;28;20225;-78
2021/12/28 13:50:01;;;;;;;2.60;1.50;;;;;;;;;;5043852;28;20272;-78
2021/12/28 13:52:28;;;;;;;1.35;1.25;;;;;;;;;;5045823;28;20302;-79
2021/12/28 13:54:55;;;;;;;1.88;1.23;;;;;;;;;;5039632;28;20233;-77
2021/12/28 13:57:22;;;;;;;8.68;1.30;;;;;;;;;;5040352;28;20194;-77
2021/12/28 13:59:55;;;;;;;3.60;1.40;;;;;;;;;;5043154;28;20228;-76
2021/12/28 14:02:22;;;;;;;5.30;1.23;;;;;;;;;;5045003;28;20194;-77
2021/12/28 14:04:49;;;;;;;7.93;1.90;;;;;;;;;;5046237;28;20199;-77
2021/12/28 14:07:18;;;;;;;4.72;1.65;;;;;;;;;;5044144;28;20562;-77
2021/12/28 14:09:46;;;;;;;3.40;1.30;;;;;;;;;;5039227;28;20195;-78
2021/12/28 14:12:13;;;;;;;9.73;2.00;;;;;;;;;;5032292;28;20289;-77
2021/12/28 14:14:47;;;;;;;4.53;1.80;;;;;;;;;;5044639;28;20198;-78
2021/12/28 14:17:14;;;;;;;6.97;2.38;;;;;;;;;;5043776;28;20313;-78
2021/12/28 14:19:42;;;;;;;10.27;2.20;;;;;;;;;;5047351;28;20272;-77
2021/12/28 14:22:10;;;;;;;3.35;2.22;;;;;;;;;;5043328;28;20210;-77
2021/12/28 14:24:39;;;;;;;6.13;1.85;;;;;;;;;;5047881;28;20582;-77
2021/12/28 14:27:06;;;;;;;11.93;3.20;;;;;;;;;;5032458;28;20206;-77
2021/12/28 14:29:33;;;;;;;5.93;2.33;;;;;;;;;;5039143;28;20578;-77
2021/12/28 14:32:01;;;;;;;7.30;2.20;;;;;;;;;;5048917;28;20682;-77
2021/12/28 14:34:31;;;;;;;10.73;3.25;;;;;;;;;;5049131;28;20579;-78
2021/12/28 14:37:01;;;;;;;7.90;2.55;;;;;;;;;;5048991;28;20210;-77
2021/12/28 14:39:34;;;;;;;5.45;2.35;;;;;;;;;;5044411;28;20195;-77
2021/12/28 14:42:06;;;;;;;7.25;2.22;;;;;;;;;;5050629;28;20199;-78
2021/12/28 14:44:34;;;;;;;16.30;3.15;;;;;;;;;;5045914;28;20675;-77
2021/12/28 14:47:02;;;;;;;5.90;2.60;;;;;;;;;;5048152;28;20195;-77
2021/12/28 14:49:32;;;;;;;9.35;2.80;;;;;;;;;;5048047;28;20206;-78
2021/12/28 14:52:12;;;;;;;5.22;3.28;;;;;;;;;;5046550;28;20246;-77
2021/12/28 14:54:53;;;;;;;9.18;3.08;;;;;;;;;;5043981;28;20693;-77
2021/12/28 14:57:21;;;;;;;8.23;2.38;;;;;;;;;;5030400;28;20591;-78